sensor_id;sensor_type;location;lat;lon;timestamp;pressure;altitude;pressure_sealevel;temperature;humidity
8398;BME280;4236;54.504;9.588;2023-05-03T00:01:28;102761.66;;;3.78;100.00
8398;BME280;4236;54.504;9.588;2023-05-03T00:03:57;102756.59;;;3.75;100.00
8398;BME280;4236;54.504;9.588;2023-05-03T00:06:24;102758.47;;;3.73;100.00
8398;BME280;4236;54.504;9.588;2023-05-03T00:08:52;102758.47;;;3.73;100.00
8398;BME280;4236;54.504;9.588;2023-05-03T00:11:21;102767.22;;;3.74;100.00
8398;BME280;4236;54.504;9.588;2023-05-03T00:13:48;102760.09;;;3.76;100.00
8398;BME280;4236;54.504;9.588;2023-05-03T00:16:17;102754.69;;;3.77;100.00
8398;BME280;4236;54.504;9.588;2023-05-03T00:18:45;102759.97;;;3.77;100.00
8398;BME280;4236;54.504;9.588;2023-05-03T00:21:14;102757.31;;;3.77;100.00
8398;BME280;4236;54.504;9.588;2023-05-03T00:23:42;102756.69;;;3.74;100.00
8398;BME280;4236;54.504;9.588;2023-05-03T00:26:10;102757.75;;;3.71;100.00
8398;BME280;4236;54.504;9.588;2023-05-03T00:28:39;102759.66;;;3.69;100.00
8398;BME280;4236;54.504;9.588;2023-05-03T00:31:07;102766.19;;;3.64;100.00
8398;BME280;4236;54.504;9.588;2023-05-03T00:33:35;102767.31;;;3.60;100.00
8398;BME280;4236;54.504;9.588;2023-05-03T00:36:07;102772.72;;;3.58;100.00
8398;BME280;4236;54.504;9.588;2023-05-03T00:38:35;102782.50;;;3.56;100.00
8398;BME280;4236;54.504;9.588;2023-05-03T00:41:03;102773.84;;;3.54;100.00
8398;BME280;4236;54.504;9.588;2023-05-03T00:43:31;102777.44;;;3.53;100.00
8398;BME280;4236;54.504;9.588;2023-05-03T00:46:02;102771.44;;;3.51;100.00
8398;BME280;4236;54.504;9.588;2023-05-03T00:48:42;102783.09;;;3.47;100.00
8398;BME280;4236;54.504;9.588;2023-05-03T00:51:12;102781.53;;;3.45;100.00
8398;BME280;4236;54.504;9.588;2023-05-03T00:53:41;102775.50;;;3.43;100.00
8398;BME280;4236;54.504;9.588;2023-05-03T00:56:09;102786.16;;;3.41;100.00
8398;BME280;4236;54.504;9.588;2023-05-03T00:58:37;102787.31;;;3.37;100.00
8398;BME280;4236;54.504;9.588;2023-05-03T01:01:07;102782.97;;;3.36;100.00
8398;BME280;4236;54.504;9.588;2023-05-03T01:03:35;102776.22;;;3.32;100.00
8398;BME280;4236;54.504;9.588;2023-05-03T01:06:12;102776.31;;;3.30;100.00
8398;BME280;4236;54.504;9.588;2023-05-03T01:08:46;102775.66;;;3.27;100.00
8398;BME280;4236;54.504;9.588;2023-05-03T01:11:22;102778.50;;;3.24;100.00
8398;BME280;4236;54.504;9.588;2023-05-03T01:13:55;102771.72;;;3.20;100.00
8398;BME280;4236;54.504;9.588;2023-05-03T01:16:30;102771.94;;;3.17;100.00
8398;BME280;4236;54.504;9.588;2023-05-03T01:19:04;102779.94;;;3.15;100.00
8398;BME280;4236;54.504;9.588;2023-05-03T01:21:34;102775.63;;;3.14;100.00
8398;BME280;4236;54.504;9.588;2023-05-03T01:24:07;102781.94;;;3.12;100.00
8398;BME280;4236;54.504;9.588;2023-05-03T01:26:39;102787.31;;;3.10;100.00
8398;BME280;4236;54.504;9.588;2023-05-03T01:29:06;102777.72;;;3.09;100.00
8398;BME280;4236;54.504;9.588;2023-05-03T01:31:38;102781.28;;;3.08;100.00
8398;BME280;4236;54.504;9.588;2023-05-03T01:34:17;102777.06;;;3.06;100.00
8398;BME280;4236;54.504;9.588;2023-05-03T01:36:48;102780.63;;;3.05;100.00
8398;BME280;4236;54.504;9.588;2023-05-03T01:39:25;102785.16;;;3.03;100.00
8398;BME280;4236;54.504;9.588;2023-05-03T01:41:55;102787.06;;;3.01;100.00
8398;BME280;4236;54.504;9.588;2023-05-03T01:44:24;102795.03;;;2.99;100.00
8398;BME280;4236;54.504;9.588;2023-05-03T01:46:53;102794.38;;;2.96;100.00
8398;BME280;4236;54.504;9.588;2023-05-03T01:49:20;102797.13;;;2.94;100.00
8398;BME280;4236;54.504;9.588;2023-05-03T01:51:48;102799.03;;;2.92;100.00
8398;BME280;4236;54.504;9.588;2023-05-03T01:54:16;102801.88;;;2.89;100.00
8398;BME280;4236;54.504;9.588;2023-05-03T01:56:43;102805.44;;;2.88;100.00
8398;BME280;4236;54.504;9.588;2023-05-03T01:59:13;102799.31;;;2.88;100.00
8398;BME280;4236;54.504;9.588;2023-05-03T02:01:41;102805.53;;;2.87;100.00
8398;BME280;4236;54.504;9.588;2023-05-03T02:04:09;102812.69;;;2.85;100.00
8398;BME280;4236;54.504;9.588;2023-05-03T02:06:37;102815.41;;;2.83;100.00
8398;BME280;4236;54.504;9.588;2023-05-03T02:09:04;102811.00;;;2.84;100.00
8398;BME280;4236;54.504;9.588;2023-05-03T02:11:32;102811.19;;;2.81;100.00
8398;BME280;4236;54.504;9.588;2023-05-03T02:14:00;102816.47;;;2.81;100.00
8398;BME280;4236;54.504;9.588;2023-05-03T02:16:29;102806.13;;;2.77;100.00
8398;BME280;4236;54.504;9.588;2023-05-03T02:18:56;102801.78;;;2.76;100.00
8398;BME280;4236;54.504;9.588;2023-05-03T02:21:25;102806.19;;;2.76;100.00
8398;BME280;4236;54.504;9.588;2023-05-03T02:23:53;102807.25;;;2.73;100.00
8398;BME280;4236;54.504;9.588;2023-05-03T02:26:21;102803.88;;;2.71;100.00
8398;BME280;4236;54.504;9.588;2023-05-03T02:28:48;102810.06;;;2.70;100.00
8398;BME280;4236;54.504;9.588;2023-05-03T02:31:16;102817.13;;;2.70;100.00
8398;BME280;4236;54.504;9.588;2023-05-03T02:33:45;102814.66;;;2.67;100.00
8398;BME280;4236;54.504;9.588;2023-05-03T02:36:13;102807.81;;;2.64;100.00
8398;BME280;4236;54.504;9.588;2023-05-03T02:38:40;102813.28;;;2.61;100.00
8398;BME280;4236;54.504;9.588;2023-05-03T02:41:08;102817.78;;;2.59;100.00
8398;BME280;4236;54.504;9.588;2023-05-03T02:43:36;102817.88;;;2.58;100.00
8398;BME280;4236;54.504;9.588;2023-05-03T02:46:03;102820.63;;;2.56;100.00
8398;BME280;4236;54.504;9.588;2023-05-03T02:48:31;102817.22;;;2.54;100.00
8398;BME280;4236;54.504;9.588;2023-05-03T02:51:00;102817.41;;;2.51;100.00
8398;BME280;4236;54.504;9.588;2023-05-03T02:53:28;102814.75;;;2.51;100.00
8398;BME280;4236;54.504;9.588;2023-05-03T02:55:56;102811.38;;;2.49;100.00
8398;BME280;4236;54.504;9.588;2023-05-03T02:58:23;102815.06;;;2.47;100.00
8398;BME280;4236;54.504;9.588;2023-05-03T03:00:51;102817.78;;;2.45;100.00
8398;BME280;4236;54.504;9.588;2023-05-03T03:03:19;102814.59;;;2.40;100.00
8398;BME280;4236;54.504;9.588;2023-05-03T03:05:47;102818.91;;;2.41;100.00
8398;BME280;4236;54.504;9.588;2023-05-03T03:08:17;102818.91;;;2.41;100.00
8398;BME280;4236;54.504;9.588;2023-05-03T03:10:44;102811.88;;;2.42;100.00
8398;BME280;4236;54.504;9.588;2023-05-03T03:13:12;102816.19;;;2.43;100.00
8398;BME280;4236;54.504;9.588;2023-05-03T03:15:40;102815.31;;;2.42;100.00
8398;BME280;4236;54.504;9.588;2023-05-03T03:18:07;102805.66;;;2.43;100.00
8398;BME280;4236;54.504;9.588;2023-05-03T03:20:35;102813.47;;;2.44;100.00
8398;BME280;4236;54.504;9.588;2023-05-03T03:23:03;102812.63;;;2.44;100.00
8398;BME280;4236;54.504;9.588;2023-05-03T03:25:32;102809.97;;;2.44;100.00
8398;BME280;4236;54.504;9.588;2023-05-03T03:27:59;102806.50;;;2.43;100.00
8398;BME280;4236;54.504;9.588;2023-05-03T03:30:27;102801.91;;;2.47;100.00
8398;BME280;4236;54.504;9.588;2023-05-03T03:32:55;102798.41;;;2.46;100.00
8398;BME280;4236;54.504;9.588;2023-05-03T03:35:23;102809.69;;;2.48;100.00
8398;BME280;4236;54.504;9.588;2023-05-03T03:37:51;102819.84;;;2.54;100.00
8398;BME280;4236;54.504;9.588;2023-05-03T03:40:18;102815.25;;;2.58;100.00
8398;BME280;4236;54.504;9.588;2023-05-03T03:42:47;102814.88;;;2.64;100.00
8398;BME280;4236;54.504;9.588;2023-05-03T03:45:15;102804.97;;;2.67;100.00
8398;BME280;4236;54.504;9.588;2023-05-03T03:47:43;102814.28;;;2.73;100.00
8398;BME280;4236;54.504;9.588;2023-05-03T03:50:11;102817.47;;;2.78;100.00
8398;BME280;4236;54.504;9.588;2023-05-03T03:52:38;102815.50;;;2.82;100.00
8398;BME280;4236;54.504;9.588;2023-05-03T03:55:06;102816.16;;;2.85;100.00
8398;BME280;4236;54.504;9.588;2023-05-03T03:57:34;102809.75;;;2.89;100.00
8398;BME280;4236;54.504;9.588;2023-05-03T04:00:04;102812.09;;;2.94;100.00
8398;BME280;4236;54.504;9.588;2023-05-03T04:02:36;102818.88;;;2.98;100.00
8398;BME280;4236;54.504;9.588;2023-05-03T04:05:04;102820.28;;;3.03;100.00
8398;BME280;4236;54.504;9.588;2023-05-03T04:07:33;102829.56;;;3.09;100.00
8398;BME280;4236;54.504;9.588;2023-05-03T04:10:01;102812.53;;;3.14;100.00
8398;BME280;4236;54.504;9.588;2023-05-03T04:12:29;102814.75;;;3.20;100.00
8398;BME280;4236;54.504;9.588;2023-05-03T04:14:56;102825.56;;;3.30;100.00
8398;BME280;4236;54.504;9.588;2023-05-03T04:17:25;102826.22;;;3.33;100.00
8398;BME280;4236;54.504;9.588;2023-05-03T04:19:54;102816.00;;;3.42;100.00
8398;BME280;4236;54.504;9.588;2023-05-03T04:22:22;102820.59;;;3.52;100.00
8398;BME280;4236;54.504;9.588;2023-05-03T04:24:50;102818.44;;;3.71;100.00
8398;BME280;4236;54.504;9.588;2023-05-03T04:27:18;102824.19;;;4.16;100.00
8398;BME280;4236;54.504;9.588;2023-05-03T04:29:46;102828.09;;;4.61;100.00
8398;BME280;4236;54.504;9.588;2023-05-03T04:32:14;102839.59;;;4.97;100.00
8398;BME280;4236;54.504;9.588;2023-05-03T04:34:43;102825.38;;;5.35;100.00
8398;BME280;4236;54.504;9.588;2023-05-03T04:37:14;102827.50;;;5.77;100.00
8398;BME280;4236;54.504;9.588;2023-05-03T04:39:43;102836.22;;;6.25;100.00
8398;BME280;4236;54.504;9.588;2023-05-03T04:42:11;102831.34;;;6.65;100.00
8398;BME280;4236;54.504;9.588;2023-05-03T04:44:40;102825.28;;;7.07;100.00
8398;BME280;4236;54.504;9.588;2023-05-03T04:47:08;102828.56;;;7.43;100.00
8398;BME280;4236;54.504;9.588;2023-05-03T04:49:37;102826.06;;;7.94;100.00
8398;BME280;4236;54.504;9.588;2023-05-03T04:52:06;102824.56;;;8.72;100.00
8398;BME280;4236;54.504;9.588;2023-05-03T04:54:35;102828.69;;;9.83;100.00
8398;BME280;4236;54.504;9.588;2023-05-03T04:57:03;102830.41;;;11.14;100.00
8398;BME280;4236;54.504;9.588;2023-05-03T04:59:30;102821.91;;;12.25;100.00
8398;BME280;4236;54.504;9.588;2023-05-03T05:01:58;102831.47;;;13.20;100.00
8398;BME280;4236;54.504;9.588;2023-05-03T05:04:26;102824.66;;;14.23;100.00
8398;BME280;4236;54.504;9.588;2023-05-03T05:06:54;102813.25;;;14.92;100.00
8398;BME280;4236;54.504;9.588;2023-05-03T05:09:23;102814.28;;;15.53;100.00
8398;BME280;4236;54.504;9.588;2023-05-03T05:11:52;102812.72;;;16.18;98.92
8398;BME280;4236;54.504;9.588;2023-05-03T05:14:22;102816.53;;;16.24;84.12
8398;BME280;4236;54.504;9.588;2023-05-03T05:16:50;102821.81;;;15.80;82.39
8398;BME280;4236;54.504;9.588;2023-05-03T05:19:18;102820.50;;;15.22;81.46
8398;BME280;4236;54.504;9.588;2023-05-03T05:21:46;102825.31;;;14.57;76.73
8398;BME280;4236;54.504;9.588;2023-05-03T05:24:13;102812.94;;;14.08;82.45
8398;BME280;4236;54.504;9.588;2023-05-03T05:26:42;102827.19;;;13.92;89.65
8398;BME280;4236;54.504;9.588;2023-05-03T05:29:10;102828.72;;;13.95;89.41
8398;BME280;4236;54.504;9.588;2023-05-03T05:31:38;102827.00;;;13.53;89.05
8398;BME280;4236;54.504;9.588;2023-05-03T05:34:06;102825.25;;;13.12;88.06
8398;BME280;4236;54.504;9.588;2023-05-03T05:36:33;102828.59;;;12.72;90.63
8398;BME280;4236;54.504;9.588;2023-05-03T05:39:01;102833.66;;;12.57;92.63
8398;BME280;4236;54.504;9.588;2023-05-03T05:41:30;102834.22;;;12.09;87.95
8398;BME280;4236;54.504;9.588;2023-05-03T05:43:58;102842.59;;;12.40;94.44
8398;BME280;4236;54.504;9.588;2023-05-03T05:46:26;102846.38;;;12.81;85.63
8398;BME280;4236;54.504;9.588;2023-05-03T05:48:54;102845.66;;;12.02;93.38
8398;BME280;4236;54.504;9.588;2023-05-03T05:51:21;102862.03;;;11.36;95.28
8398;BME280;4236;54.504;9.588;2023-05-03T05:53:49;102861.59;;;10.96;100.00
8398;BME280;4236;54.504;9.588;2023-05-03T05:56:17;102857.41;;;10.37;100.00
8398;BME280;4236;54.504;9.588;2023-05-03T05:58:44;102862.94;;;9.88;100.00
8398;BME280;4236;54.504;9.588;2023-05-03T06:01:13;102868.09;;;9.61;100.00
8398;BME280;4236;54.504;9.588;2023-05-03T06:03:41;102872.34;;;9.23;100.00
8398;BME280;4236;54.504;9.588;2023-05-03T06:06:09;102865.59;;;9.10;100.00
8398;BME280;4236;54.504;9.588;2023-05-03T06:08:36;102877.06;;;9.01;100.00
8398;BME280;4236;54.504;9.588;2023-05-03T06:11:04;102873.88;;;8.76;100.00
8398;BME280;4236;54.504;9.588;2023-05-03T06:13:33;102876.16;;;8.81;100.00
8398;BME280;4236;54.504;9.588;2023-05-03T06:16:04;102880.38;;;8.93;100.00
8398;BME280;4236;54.504;9.588;2023-05-03T06:18:33;102877.13;;;8.80;100.00
8398;BME280;4236;54.504;9.588;2023-05-03T06:21:01;102887.19;;;8.76;100.00
8398;BME280;4236;54.504;9.588;2023-05-03T06:23:28;102882.75;;;8.86;100.00
8398;BME280;4236;54.504;9.588;2023-05-03T06:25:57;102883.44;;;9.19;100.00
8398;BME280;4236;54.504;9.588;2023-05-03T06:28:25;102885.66;;;9.23;100.00
8398;BME280;4236;54.504;9.588;2023-05-03T06:30:52;102879.22;;;9.16;100.00
8398;BME280;4236;54.504;9.588;2023-05-03T06:33:20;102886.41;;;9.25;100.00
8398;BME280;4236;54.504;9.588;2023-05-03T06:35:49;102893.25;;;9.28;100.00
8398;BME280;4236;54.504;9.588;2023-05-03T06:38:17;102885.69;;;9.33;100.00
8398;BME280;4236;54.504;9.588;2023-05-03T06:40:45;102887.56;;;9.52;100.00
8398;BME280;4236;54.504;9.588;2023-05-03T06:43:13;102891.50;;;9.57;100.00
8398;BME280;4236;54.504;9.588;2023-05-03T06:45:41;102900.78;;;9.72;100.00
8398;BME280;4236;54.504;9.588;2023-05-03T06:48:09;102889.41;;;9.89;100.00
8398;BME280;4236;54.504;9.588;2023-05-03T06:50:38;102901.63;;;10.11;100.00
8398;BME280;4236;54.504;9.588;2023-05-03T06:53:06;102888.03;;;10.33;100.00
8398;BME280;4236;54.504;9.588;2023-05-03T06:55:34;102894.06;;;10.45;100.00
8398;BME280;4236;54.504;9.588;2023-05-03T06:58:02;102891.09;;;10.48;100.00
8398;BME280;4236;54.504;9.588;2023-05-03T07:00:35;102892.91;;;10.57;100.00
8398;BME280;4236;54.504;9.588;2023-05-03T07:03:04;102893.81;;;10.75;100.00
8398;BME280;4236;54.504;9.588;2023-05-03T07:05:32;102890.97;;;10.86;100.00
8398;BME280;4236;54.504;9.588;2023-05-03T07:08:00;102896.06;;;10.70;100.00
8398;BME280;4236;54.504;9.588;2023-05-03T07:10:30;102888.59;;;10.83;100.00
8398;BME280;4236;54.504;9.588;2023-05-03T07:12:57;102893.16;;;11.00;100.00
8398;BME280;4236;54.504;9.588;2023-05-03T07:15:25;102888.66;;;12.26;100.00
8398;BME280;4236;54.504;9.588;2023-05-03T07:17:53;102885.75;;;13.30;100.00
8398;BME280;4236;54.504;9.588;2023-05-03T07:20:21;102876.84;;;14.20;97.73
8398;BME280;4236;54.504;9.588;2023-05-03T07:22:48;102874.34;;;14.98;87.22
8398;BME280;4236;54.504;9.588;2023-05-03T07:25:16;102874.81;;;15.94;82.06
8398;BME280;4236;54.504;9.588;2023-05-03T07:27:45;102865.03;;;16.53;76.79
8398;BME280;4236;54.504;9.588;2023-05-03T07:30:13;102876.41;;;16.92;64.92
8398;BME280;4236;54.504;9.588;2023-05-03T07:32:41;102876.13;;;16.87;66.40
8398;BME280;4236;54.504;9.588;2023-05-03T07:35:09;102873.97;;;17.12;64.89
8398;BME280;4236;54.504;9.588;2023-05-03T07:37:36;102872.56;;;17.52;64.79
8398;BME280;4236;54.504;9.588;2023-05-03T07:40:05;102874.34;;;17.45;62.74
8398;BME280;4236;54.504;9.588;2023-05-03T07:42:33;102875.81;;;17.26;59.33
8398;BME280;4236;54.504;9.588;2023-05-03T07:45:02;102878.16;;;17.50;62.33
8398;BME280;4236;54.504;9.588;2023-05-03T07:47:30;102882.16;;;17.04;59.29
8398;BME280;4236;54.504;9.588;2023-05-03T07:49:58;102867.13;;;16.66;57.03
8398;BME280;4236;54.504;9.588;2023-05-03T07:52:27;102876.63;;;15.79;59.61
8398;BME280;4236;54.504;9.588;2023-05-03T07:54:54;102875.94;;;15.54;62.93
8398;BME280;4236;54.504;9.588;2023-05-03T07:57:22;102879.56;;;15.30;60.32
8398;BME280;4236;54.504;9.588;2023-05-03T07:59:51;102881.69;;;14.25;59.63
8398;BME280;4236;54.504;9.588;2023-05-03T08:02:20;102881.13;;;13.41;64.82
8398;BME280;4236;54.504;9.588;2023-05-03T08:04:48;102878.53;;;13.23;66.76
8398;BME280;4236;54.504;9.588;2023-05-03T08:07:16;102883.19;;;13.21;63.35
8398;BME280;4236;54.504;9.588;2023-05-03T08:09:43;102886.69;;;12.54;68.10
8398;BME280;4236;54.504;9.588;2023-05-03T08:12:11;102889.22;;;12.12;76.92
8398;BME280;4236;54.504;9.588;2023-05-03T08:14:39;102894.09;;;11.36;84.48
8398;BME280;4236;54.504;9.588;2023-05-03T08:17:07;102896.78;;;11.09;93.61
8398;BME280;4236;54.504;9.588;2023-05-03T08:19:36;102894.41;;;10.69;100.00
8398;BME280;4236;54.504;9.588;2023-05-03T08:22:03;102899.09;;;10.48;100.00
8398;BME280;4236;54.504;9.588;2023-05-03T08:24:32;102901.06;;;10.46;100.00
8398;BME280;4236;54.504;9.588;2023-05-03T08:27:00;102900.34;;;10.53;100.00
8398;BME280;4236;54.504;9.588;2023-05-03T08:29:28;102901.78;;;10.48;100.00
8398;BME280;4236;54.504;9.588;2023-05-03T08:31:55;102898.25;;;10.57;100.00
8398;BME280;4236;54.504;9.588;2023-05-03T08:34:24;102888.66;;;10.54;100.00
8398;BME280;4236;54.504;9.588;2023-05-03T08:36:53;102897.13;;;10.40;100.00
8398;BME280;4236;54.504;9.588;2023-05-03T08:39:20;102899.22;;;10.46;94.62
8398;BME280;4236;54.504;9.588;2023-05-03T08:41:49;102901.56;;;10.69;98.04
8398;BME280;4236;54.504;9.588;2023-05-03T08:44:20;102895.47;;;10.86;97.57
8398;BME280;4236;54.504;9.588;2023-05-03T08:46:48;102895.09;;;10.71;100.00
8398;BME280;4236;54.504;9.588;2023-05-03T08:49:16;102898.09;;;10.59;94.69
8398;BME280;4236;54.504;9.588;2023-05-03T08:51:44;102899.88;;;10.68;95.27
8398;BME280;4236;54.504;9.588;2023-05-03T08:54:16;102901.94;;;10.83;96.75
8398;BME280;4236;54.504;9.588;2023-05-03T08:56:46;102903.47;;;10.86;91.70
8398;BME280;4236;54.504;9.588;2023-05-03T08:59:14;102906.88;;;11.15;86.07
8398;BME280;4236;54.504;9.588;2023-05-03T09:01:42;102901.22;;;11.18;78.29
8398;BME280;4236;54.504;9.588;2023-05-03T09:04:10;102909.25;;;11.18;81.04
8398;BME280;4236;54.504;9.588;2023-05-03T09:06:38;102902.38;;;11.43;83.71
8398;BME280;4236;54.504;9.588;2023-05-03T09:09:07;102894.34;;;11.70;84.01
8398;BME280;4236;54.504;9.588;2023-05-03T09:11:37;102891.88;;;12.55;77.03
8398;BME280;4236;54.504;9.588;2023-05-03T09:14:09;102890.97;;;13.40;75.72
8398;BME280;4236;54.504;9.588;2023-05-03T09:16:37;102891.84;;;13.49;62.23
8398;BME280;4236;54.504;9.588;2023-05-03T09:19:07;102896.75;;;13.61;66.08
8398;BME280;4236;54.504;9.588;2023-05-03T09:21:38;102896.38;;;12.81;59.12
8398;BME280;4236;54.504;9.588;2023-05-03T09:24:12;102894.69;;;12.80;64.08
8398;BME280;4236;54.504;9.588;2023-05-03T09:26:42;102893.75;;;12.37;61.82
8398;BME280;4236;54.504;9.588;2023-05-03T09:29:26;102891.72;;;12.13;64.73
8398;BME280;4236;54.504;9.588;2023-05-03T09:31:58;102897.69;;;12.07;73.19
8398;BME280;4236;54.504;9.588;2023-05-03T09:34:26;102897.25;;;11.77;76.19
8398;BME280;4236;54.504;9.588;2023-05-03T09:36:54;102903.13;;;11.80;75.85
8398;BME280;4236;54.504;9.588;2023-05-03T09:39:22;102898.53;;;11.73;78.25
8398;BME280;4236;54.504;9.588;2023-05-03T09:41:51;102899.63;;;11.52;82.46
8398;BME280;4236;54.504;9.588;2023-05-03T09:44:19;102908.56;;;11.71;77.72
8398;BME280;4236;54.504;9.588;2023-05-03T09:47:02;102908.09;;;11.75;86.89
8398;BME280;4236;54.504;9.588;2023-05-03T09:49:30;102906.47;;;11.64;83.92
8398;BME280;4236;54.504;9.588;2023-05-03T09:51:59;102909.44;;;11.61;88.83
8398;BME280;4236;54.504;9.588;2023-05-03T09:54:28;102915.44;;;11.46;94.13
8398;BME280;4236;54.504;9.588;2023-05-03T09:56:59;102918.69;;;11.40;100.00
8398;BME280;4236;54.504;9.588;2023-05-03T09:59:27;102919.34;;;11.24;100.00
8398;BME280;4236;54.504;9.588;2023-05-03T10:01:56;102913.94;;;11.34;99.81
8398;BME280;4236;54.504;9.588;2023-05-03T10:04:26;102914.75;;;11.44;94.82
8398;BME280;4236;54.504;9.588;2023-05-03T10:06:58;102913.81;;;11.53;89.21
8398;BME280;4236;54.504;9.588;2023-05-03T10:09:30;102912.03;;;11.71;90.06
8398;BME280;4236;54.504;9.588;2023-05-03T10:12:08;102903.66;;;11.84;81.85
8398;BME280;4236;54.504;9.588;2023-05-03T10:14:39;102907.19;;;12.02;85.11
8398;BME280;4236;54.504;9.588;2023-05-03T10:17:12;102908.69;;;12.22;81.13
8398;BME280;4236;54.504;9.588;2023-05-03T10:19:46;102906.25;;;12.11;78.59
8398;BME280;4236;54.504;9.588;2023-05-03T10:22:17;102902.78;;;12.18;76.85
8398;BME280;4236;54.504;9.588;2023-05-03T10:25:06;102894.00;;;12.52;75.96
8398;BME280;4236;54.504;9.588;2023-05-03T10:28:00;102897.22;;;12.81;70.85
8398;BME280;4236;54.504;9.588;2023-05-03T10:30:30;102893.31;;;12.75;69.94
8398;BME280;4236;54.504;9.588;2023-05-03T10:32:58;102890.84;;;13.50;69.54
8398;BME280;4236;54.504;9.588;2023-05-03T10:35:49;102888.31;;;13.56;64.43
8398;BME280;4236;54.504;9.588;2023-05-03T10:38:20;102897.00;;;13.42;65.41
8398;BME280;4236;54.504;9.588;2023-05-03T10:40:48;102902.66;;;13.23;64.64
8398;BME280;4236;54.504;9.588;2023-05-03T10:43:42;102903.78;;;13.12;67.55
8398;BME280;4236;54.504;9.588;2023-05-03T10:46:32;102902.41;;;13.08;64.00
8398;BME280;4236;54.504;9.588;2023-05-03T10:49:20;102898.69;;;13.43;63.28
8398;BME280;4236;54.504;9.588;2023-05-03T10:51:49;102896.63;;;14.27;61.90
8398;BME280;4236;54.504;9.588;2023-05-03T10:54:17;102899.81;;;14.47;60.96
8398;BME280;4236;54.504;9.588;2023-05-03T10:56:49;102892.06;;;14.68;54.23
8398;BME280;4236;54.504;9.588;2023-05-03T10:59:19;102893.38;;;14.80;57.10
8398;BME280;4236;54.504;9.588;2023-05-03T11:01:48;102896.13;;;15.11;55.94
8398;BME280;4236;54.504;9.588;2023-05-03T11:04:32;102896.25;;;15.57;52.81
8398;BME280;4236;54.504;9.588;2023-05-03T11:07:01;102890.94;;;15.10;53.06
8398;BME280;4236;54.504;9.588;2023-05-03T11:09:32;102889.44;;;14.36;55.68
8398;BME280;4236;54.504;9.588;2023-05-03T11:12:04;102893.34;;;14.88;55.87
8398;BME280;4236;54.504;9.588;2023-05-03T11:14:33;102894.69;;;14.84;55.95
8398;BME280;4236;54.504;9.588;2023-05-03T11:17:01;102894.44;;;14.55;59.11
8398;BME280;4236;54.504;9.588;2023-05-03T11:19:28;102890.38;;;14.67;55.58
8398;BME280;4236;54.504;9.588;2023-05-03T11:21:56;102892.56;;;14.72;56.00
8398;BME280;4236;54.504;9.588;2023-05-03T11:24:24;102889.69;;;14.73;57.29
8398;BME280;4236;54.504;9.588;2023-05-03T11:26:52;102893.47;;;14.48;54.15
8398;BME280;4236;54.504;9.588;2023-05-03T11:29:19;102889.25;;;14.05;59.69
8398;BME280;4236;54.504;9.588;2023-05-03T11:31:50;102889.56;;;13.70;62.95
8398;BME280;4236;54.504;9.588;2023-05-03T11:34:18;102890.22;;;13.64;66.01
8398;BME280;4236;54.504;9.588;2023-05-03T11:36:45;102889.81;;;13.43;66.30
8398;BME280;4236;54.504;9.588;2023-05-03T11:39:14;102891.09;;;12.97;64.23
8398;BME280;4236;54.504;9.588;2023-05-03T11:41:59;102888.69;;;13.11;64.01
8398;BME280;4236;54.504;9.588;2023-05-03T11:44:28;102887.72;;;13.70;62.68
8398;BME280;4236;54.504;9.588;2023-05-03T11:46:57;102884.03;;;14.04;59.31
8398;BME280;4236;54.504;9.588;2023-05-03T11:49:25;102887.59;;;13.38;63.87
8398;BME280;4236;54.504;9.588;2023-05-03T11:51:53;102887.59;;;13.30;62.33
8398;BME280;4236;54.504;9.588;2023-05-03T11:54:21;102890.16;;;13.48;62.34
8398;BME280;4236;54.504;9.588;2023-05-03T11:56:54;102880.69;;;13.19;62.97
8398;BME280;4236;54.504;9.588;2023-05-03T11:59:33;102883.41;;;13.27;63.06
8398;BME280;4236;54.504;9.588;2023-05-03T12:02:02;102888.09;;;13.25;62.64
8398;BME280;4236;54.504;9.588;2023-05-03T12:04:31;102885.50;;;13.50;61.57
8398;BME280;4236;54.504;9.588;2023-05-03T12:06:59;102895.09;;;13.76;62.82
8398;BME280;4236;54.504;9.588;2023-05-03T12:09:29;102895.56;;;13.72;61.60
8398;BME280;4236;54.504;9.588;2023-05-03T12:11:57;102893.66;;;13.40;60.80
8398;BME280;4236;54.504;9.588;2023-05-03T12:14:28;102901.94;;;13.13;62.33
8398;BME280;4236;54.504;9.588;2023-05-03T12:17:33;102896.97;;;13.26;62.76
8398;BME280;4236;54.504;9.588;2023-05-03T12:20:13;102890.44;;;13.28;61.61
8398;BME280;4236;54.504;9.588;2023-05-03T12:22:47;102894.78;;;13.29;61.38
8398;BME280;4236;54.504;9.588;2023-05-03T12:25:17;102889.22;;;13.65;60.03
8398;BME280;4236;54.504;9.588;2023-05-03T12:27:46;102887.91;;;14.25;60.12
8398;BME280;4236;54.504;9.588;2023-05-03T12:30:34;102890.75;;;14.16;57.37
8398;BME280;4236;54.504;9.588;2023-05-03T12:33:07;102886.16;;;14.73;57.63
8398;BME280;4236;54.504;9.588;2023-05-03T12:35:36;102893.56;;;14.71;55.57
8398;BME280;4236;54.504;9.588;2023-05-03T12:38:06;102887.91;;;14.25;61.05
8398;BME280;4236;54.504;9.588;2023-05-03T12:40:36;102891.06;;;13.72;62.30
8398;BME280;4236;54.504;9.588;2023-05-03T12:43:05;102888.13;;;13.42;61.31
8398;BME280;4236;54.504;9.588;2023-05-03T12:45:33;102880.53;;;13.21;63.16
8398;BME280;4236;54.504;9.588;2023-05-03T12:48:07;102877.97;;;13.11;61.84
8398;BME280;4236;54.504;9.588;2023-05-03T12:50:35;102878.59;;;13.05;68.47
8398;BME280;4236;54.504;9.588;2023-05-03T12:53:05;102874.47;;;13.11;72.29
8398;BME280;4236;54.504;9.588;2023-05-03T12:55:37;102880.22;;;13.32;67.55
8398;BME280;4236;54.504;9.588;2023-05-03T12:58:09;102882.22;;;13.30;64.68
8398;BME280;4236;54.504;9.588;2023-05-03T13:00:40;102883.38;;;13.19;64.78
8398;BME280;4236;54.504;9.588;2023-05-03T13:03:29;102877.78;;;13.05;64.09
8398;BME280;4236;54.504;9.588;2023-05-03T13:05:59;102873.38;;;12.96;63.26
8398;BME280;4236;54.504;9.588;2023-05-03T13:08:39;102871.72;;;12.69;62.27
8398;BME280;4236;54.504;9.588;2023-05-03T13:11:16;102872.53;;;12.69;66.31
8398;BME280;4236;54.504;9.588;2023-05-03T13:13:45;102875.31;;;12.86;67.84
8398;BME280;4236;54.504;9.588;2023-05-03T13:16:12;102872.22;;;13.40;65.58
8398;BME280;4236;54.504;9.588;2023-05-03T13:18:41;102860.72;;;13.64;64.83
8398;BME280;4236;54.504;9.588;2023-05-03T13:21:10;102862.09;;;14.00;64.64
8398;BME280;4236;54.504;9.588;2023-05-03T13:23:38;102862.91;;;14.09;64.27